Check out our new PWSWeather beta!
PWSweather.com
Personal Weather Stations
Station Observations
K3URT
Lower Paxton Township, Harrisburg, PA 17109

Lower Paxton TownshipHarrisburg, PA 17109

Lat: 40.2878601, Lon: -76.80958550000003

Elevation: 483

Station Type: ambient ws-2080a

Latest ConditionsUpdated 1:03:31 PM EST Monday, Feb 24, 2020
Currently Today's Max Today's Min Today's Average
Temperature 60.3°F15.7°C 61.7°F16.5°C 26.8°F-2.9°C 38.4°F3.6°C
Dew Point 20.2°F-6.6°C 23.9°F-4.5°C 10.5°F-11.9°C 14.6°F-9.7°C
Winds 1.6 mph E2.6 kmh E 4.5 mph -7.2 kmh - - 0.7 mph 1.1 kmh
Wind Gusts 2.2 mph3.5 kmh 6.0 mph9.7 kmh - -
Humidity 21% 57% 19% 40%
Pressure 29.57 in1001.4 mb 29.65 in1004.1 mb 29.57 in1001.4 mb -
Hour Temp Dew Point Humidity Winds Wind Gusts Pressure Precip Precip Rate Daily Precip Total
01:03 PM 60.3°F15.7°C 20.2°F-6.6°C 21% 1.6 mph E2.6 kmh E 2.2 mph3.5 kmh 29.57 in1001.4 mb 0.00 in0.0 mm 0.00 in0.0 mm 0.00 in0.0 mm
01:01 PM 60.3°F15.7°C 20.2°F-6.6°C 21% 1.6 mph E2.6 kmh E 2.2 mph3.5 kmh 29.57 in1001.4 mb 0.00 in0.0 mm 0.00 in0.0 mm 0.00 in0.0 mm
12:58 PM 59.7°F15.4°C 19.7°F-6.8°C 21% 2.2 mph SE3.5 kmh SE 3.8 mph6.1 kmh 29.57 in1001.4 mb 0.00 in0.0 mm 0.00 in0.0 mm 0.00 in0.0 mm
12:55 PM 59.7°F15.4°C 19.7°F-6.8°C 21% 2.2 mph SE3.5 kmh SE 3.8 mph6.1 kmh 29.57 in1001.4 mb 0.00 in0.0 mm 0.00 in0.0 mm 0.00 in0.0 mm
12:53 PM 59.9°F15.5°C 19.9°F-6.7°C 21% 2.2 mph S3.5 kmh S 3.8 mph6.1 kmh 29.57 in1001.4 mb 0.00 in0.0 mm 0.00 in0.0 mm 0.00 in0.0 mm
12:50 PM 59.9°F15.5°C 19.9°F-6.7°C 21% 2.2 mph S3.5 kmh S 3.8 mph6.1 kmh 29.57 in1001.4 mb 0.00 in0.0 mm 0.00 in0.0 mm 0.00 in0.0 mm
12:48 PM 59.7°F15.4°C 19.7°F-6.8°C 21% 1.6 mph SE2.6 kmh SE 3.1 mph5.0 kmh 29.58 in1001.7 mb 0.00 in0.0 mm 0.00 in0.0 mm 0.00 in0.0 mm
12:45 PM 59.7°F15.4°C 19.7°F-6.8°C 21% 1.6 mph SE2.6 kmh SE 3.1 mph5.0 kmh 29.58 in1001.7 mb 0.00 in0.0 mm 0.00 in0.0 mm 0.00 in0.0 mm
12:43 PM 59.9°F15.5°C 19.9°F-6.7°C 21% 0.7 mph S1.1 kmh S 1.6 mph2.6 kmh 29.58 in1001.7 mb 0.00 in0.0 mm 0.00 in0.0 mm 0.00 in0.0 mm
12:40 PM 59.9°F15.5°C 19.9°F-6.7°C 21% 0.7 mph S1.1 kmh S 1.6 mph2.6 kmh 29.58 in1001.7 mb 0.00 in0.0 mm 0.00 in0.0 mm 0.00 in0.0 mm
12:38 PM 59.9°F15.5°C 19.9°F-6.7°C 21% 2.2 mph SE3.5 kmh SE 4.5 mph7.2 kmh 29.58 in1001.7 mb 0.00 in0.0 mm 0.00 in0.0 mm 0.00 in0.0 mm
12:35 PM 59.9°F15.5°C 19.9°F-6.7°C 21% 2.2 mph SE3.5 kmh SE 4.5 mph7.2 kmh 29.58 in1001.7 mb 0.00 in0.0 mm 0.00 in0.0 mm 0.00 in0.0 mm
12:33 PM 60.6°F15.9°C 20.5°F-6.4°C 21% 4.5 mph SE7.2 kmh SE 6.0 mph9.7 kmh 29.58 in1001.7 mb 0.00 in0.0 mm 0.00 in0.0 mm 0.00 in0.0 mm
12:30 PM 60.6°F15.9°C 20.5°F-6.4°C 21% 4.5 mph SE7.2 kmh SE 6.0 mph9.7 kmh 29.58 in1001.7 mb 0.00 in0.0 mm 0.00 in0.0 mm 0.00 in0.0 mm
12:28 PM 60.1°F15.6°C 20.0°F-6.7°C 21% 3.8 mph S6.1 kmh S 5.4 mph8.7 kmh 29.59 in1002.0 mb 0.00 in0.0 mm 0.00 in0.0 mm 0.00 in0.0 mm
12:25 PM 60.1°F15.6°C 20.0°F-6.7°C 21% 3.8 mph S6.1 kmh S 5.4 mph8.7 kmh 29.59 in1002.0 mb 0.00 in0.0 mm 0.00 in0.0 mm 0.00 in0.0 mm
12:23 PM 61.7°F16.5°C 19.0°F-7.2°C 19% 3.8 mph SW6.1 kmh SW 5.4 mph8.7 kmh 29.58 in1001.7 mb 0.00 in0.0 mm 0.00 in0.0 mm 0.00 in0.0 mm
12:20 PM 61.7°F16.5°C 19.0°F-7.2°C 19% 3.8 mph SW6.1 kmh SW 5.4 mph8.7 kmh 29.58 in1001.7 mb 0.00 in0.0 mm 0.00 in0.0 mm 0.00 in0.0 mm
12:18 PM 61.0°F16.1°C 18.4°F-7.6°C 19% 2.2 mph S3.5 kmh S 3.1 mph5.0 kmh 29.58 in1001.7 mb 0.00 in0.0 mm 0.00 in0.0 mm 0.00 in0.0 mm
12:15 PM 61.0°F16.1°C 18.4°F-7.6°C 19% 2.2 mph S3.5 kmh S 3.1 mph5.0 kmh 29.58 in1001.7 mb 0.00 in0.0 mm 0.00 in0.0 mm 0.00 in0.0 mm
12:13 PM 61.2°F16.2°C 18.6°F-7.4°C 19% 1.6 mph S2.6 kmh S 2.2 mph3.5 kmh 29.58 in1001.7 mb 0.00 in0.0 mm 0.00 in0.0 mm 0.00 in0.0 mm
12:10 PM 60.6°F15.9°C 20.5°F-6.4°C 21% 3.1 mph SE5.0 kmh SE 3.8 mph6.1 kmh 29.58 in1001.7 mb 0.00 in0.0 mm 0.00 in0.0 mm 0.00 in0.0 mm
12:08 PM 60.6°F15.9°C 20.5°F-6.4°C 21% 3.1 mph SE5.0 kmh SE 3.8 mph6.1 kmh 29.58 in1001.7 mb 0.00 in0.0 mm 0.00 in0.0 mm 0.00 in0.0 mm
12:05 PM 60.6°F15.9°C 20.5°F-6.4°C 21% 3.1 mph SE5.0 kmh SE 3.8 mph6.1 kmh 29.58 in1001.7 mb 0.00 in0.0 mm 0.00 in0.0 mm 0.00 in0.0 mm
12:03 PM 59.5°F15.3°C 19.6°F-6.9°C 21% 3.1 mph S5.0 kmh S 3.8 mph6.1 kmh 29.59 in1002.0 mb 0.00 in0.0 mm 0.00 in0.0 mm 0.00 in0.0 mm
12:00 PM 59.5°F15.3°C 19.6°F-6.9°C 21% 3.1 mph S5.0 kmh S 3.8 mph6.1 kmh 29.59 in1002.0 mb 0.00 in0.0 mm 0.00 in0.0 mm 0.00 in0.0 mm
11:58 AM 60.3°F15.7°C 20.2°F-6.6°C 21% 1.6 mph S2.6 kmh S 3.1 mph5.0 kmh 29.59 in1002.0 mb 0.00 in0.0 mm 0.00 in0.0 mm 0.00 in0.0 mm
11:55 AM 60.3°F15.7°C 20.2°F-6.6°C 21% 1.6 mph S2.6 kmh S 3.1 mph5.0 kmh 29.59 in1002.0 mb 0.00 in0.0 mm 0.00 in0.0 mm 0.00 in0.0 mm
11:53 AM 58.6°F14.8°C 19.9°F-6.7°C 22% 2.2 mph S3.5 kmh S 3.8 mph6.1 kmh 29.60 in1002.4 mb 0.00 in0.0 mm 0.00 in0.0 mm 0.00 in0.0 mm
11:50 AM 57.6°F14.2°C 19.0°F-7.2°C 22% 3.8 mph SW6.1 kmh SW 5.4 mph8.7 kmh 29.60 in1002.4 mb 0.00 in0.0 mm 0.00 in0.0 mm 0.00 in0.0 mm
11:47 AM 57.6°F14.2°C 19.0°F-7.2°C 22% 3.8 mph SW6.1 kmh SW 5.4 mph8.7 kmh 29.60 in1002.4 mb 0.00 in0.0 mm 0.00 in0.0 mm 0.00 in0.0 mm
11:45 AM 57.6°F14.2°C 19.0°F-7.2°C 22% 3.8 mph SW6.1 kmh SW 5.4 mph8.7 kmh 29.60 in1002.4 mb 0.00 in0.0 mm 0.00 in0.0 mm 0.00 in0.0 mm
11:42 AM 56.5°F13.6°C 19.1°F-7.2°C 23% 0.7 mph S1.1 kmh S 3.1 mph5.0 kmh 29.60 in1002.4 mb 0.00 in0.0 mm 0.00 in0.0 mm 0.00 in0.0 mm
11:40 AM 56.5°F13.6°C 19.1°F-7.2°C 23% 0.7 mph S1.1 kmh S 3.1 mph5.0 kmh 29.60 in1002.4 mb 0.00 in0.0 mm 0.00 in0.0 mm 0.00 in0.0 mm
11:37 AM 57.7°F14.3°C 19.2°F-7.1°C 22% 2.2 mph SW3.5 kmh SW 3.8 mph6.1 kmh 29.60 in1002.4 mb 0.00 in0.0 mm 0.00 in0.0 mm 0.00 in0.0 mm
11:35 AM 59.9°F15.5°C 19.9°F-6.7°C 21% 2.2 mph SE3.5 kmh SE 3.8 mph6.1 kmh 29.61 in1002.7 mb 0.00 in0.0 mm 0.00 in0.0 mm 0.00 in0.0 mm
11:32 AM 59.9°F15.5°C 19.9°F-6.7°C 21% 2.2 mph SE3.5 kmh SE 3.8 mph6.1 kmh 29.61 in1002.7 mb 0.00 in0.0 mm 0.00 in0.0 mm 0.00 in0.0 mm
11:30 AM 59.2°F15.1°C 19.3°F-7.1°C 21% 2.2 mph SE3.5 kmh SE 3.8 mph6.1 kmh 29.60 in1002.4 mb 0.00 in0.0 mm 0.00 in0.0 mm 0.00 in0.0 mm
11:27 AM 59.2°F15.1°C 19.3°F-7.1°C 21% 2.2 mph SE3.5 kmh SE 3.8 mph6.1 kmh 29.60 in1002.4 mb 0.00 in0.0 mm 0.00 in0.0 mm 0.00 in0.0 mm
11:25 AM 59.2°F15.1°C 19.3°F-7.1°C 21% 2.2 mph SE3.5 kmh SE 3.8 mph6.1 kmh 29.60 in1002.4 mb 0.00 in0.0 mm 0.00 in0.0 mm 0.00 in0.0 mm
11:22 AM 58.3°F14.6°C 19.6°F-6.9°C 22% 1.6 mph SW2.6 kmh SW 2.2 mph3.5 kmh 29.60 in1002.4 mb 0.00 in0.0 mm 0.00 in0.0 mm 0.00 in0.0 mm
11:20 AM 57.2°F14.0°C 18.7°F-7.4°C 22% 1.6 mph NE2.6 kmh NE 2.2 mph3.5 kmh 29.60 in1002.4 mb 0.00 in0.0 mm 0.00 in0.0 mm 0.00 in0.0 mm
11:17 AM 57.2°F14.0°C 18.7°F-7.4°C 22% 1.6 mph NE2.6 kmh NE 2.2 mph3.5 kmh 29.60 in1002.4 mb 0.00 in0.0 mm 0.00 in0.0 mm 0.00 in0.0 mm
11:15 AM 57.2°F14.0°C 18.7°F-7.4°C 22% 2.2 mph ENE3.5 kmh ENE 3.8 mph6.1 kmh 29.59 in1002.0 mb 0.00 in0.0 mm 0.00 in0.0 mm 0.00 in0.0 mm
11:12 AM 57.2°F14.0°C 18.7°F-7.4°C 22% 2.2 mph ENE3.5 kmh ENE 3.8 mph6.1 kmh 29.59 in1002.0 mb 0.00 in0.0 mm 0.00 in0.0 mm 0.00 in0.0 mm
11:10 AM 56.7°F13.7°C 19.3°F-7.1°C 23% 2.2 mph E3.5 kmh E 3.1 mph5.0 kmh 29.60 in1002.4 mb 0.00 in0.0 mm 0.00 in0.0 mm 0.00 in0.0 mm
11:07 AM 56.7°F13.7°C 19.3°F-7.1°C 23% 2.2 mph E3.5 kmh E 3.1 mph5.0 kmh 29.60 in1002.4 mb 0.00 in0.0 mm 0.00 in0.0 mm 0.00 in0.0 mm
11:05 AM 56.7°F13.7°C 19.3°F-7.1°C 23% 2.2 mph E3.5 kmh E 3.1 mph5.0 kmh 29.60 in1002.4 mb 0.00 in0.0 mm 0.00 in0.0 mm 0.00 in0.0 mm
11:02 AM 57.0°F13.9°C 19.6°F-6.9°C 23% 1.6 mph 2.6 kmh 2.2 mph3.5 kmh 29.60 in1002.4 mb 0.00 in0.0 mm 0.00 in0.0 mm 0.00 in0.0 mm
11:00 AM 56.8°F13.8°C 19.4°F-7.0°C 23% 2.2 mph SE3.5 kmh SE 2.2 mph3.5 kmh 29.60 in1002.4 mb 0.00 in0.0 mm 0.00 in0.0 mm 0.00 in0.0 mm
10:57 AM 56.8°F13.8°C 19.4°F-7.0°C 23% 2.2 mph SE3.5 kmh SE 2.2 mph3.5 kmh 29.60 in1002.4 mb 0.00 in0.0 mm 0.00 in0.0 mm 0.00 in0.0 mm
10:55 AM 56.1°F13.4°C 18.8°F-7.3°C 23% 2.2 mph SE3.5 kmh SE 3.8 mph6.1 kmh 29.61 in1002.7 mb 0.00 in0.0 mm 0.00 in0.0 mm 0.00 in0.0 mm
10:52 AM 56.1°F13.4°C 18.8°F-7.3°C 23% 2.2 mph SE3.5 kmh SE 3.8 mph6.1 kmh 29.61 in1002.7 mb 0.00 in0.0 mm 0.00 in0.0 mm 0.00 in0.0 mm
10:50 AM 54.9°F12.7°C 15.7°F-9.1°C 21% 0.7 mph E1.1 kmh E 1.6 mph2.6 kmh 29.61 in1002.7 mb 0.00 in0.0 mm 0.00 in0.0 mm 0.00 in0.0 mm
10:47 AM 54.9°F12.7°C 15.7°F-9.1°C 21% 0.7 mph E1.1 kmh E 1.6 mph2.6 kmh 29.61 in1002.7 mb 0.00 in0.0 mm 0.00 in0.0 mm 0.00 in0.0 mm
10:45 AM 54.5°F12.5°C 15.4°F-9.2°C 21% 0.7 mph S1.1 kmh S 1.6 mph2.6 kmh 29.61 in1002.7 mb 0.00 in0.0 mm 0.00 in0.0 mm 0.00 in0.0 mm
10:42 AM 54.5°F12.5°C 15.4°F-9.2°C 21% 0.7 mph S1.1 kmh S 1.6 mph2.6 kmh 29.61 in1002.7 mb 0.00 in0.0 mm 0.00 in0.0 mm 0.00 in0.0 mm
10:40 AM 54.1°F12.3°C 15.1°F-9.4°C 21% 2.2 mph S3.5 kmh S 3.1 mph5.0 kmh 29.61 in1002.7 mb 0.00 in0.0 mm 0.00 in0.0 mm 0.00 in0.0 mm
10:37 AM 54.1°F12.3°C 15.1°F-9.4°C 21% 2.2 mph S3.5 kmh S 3.1 mph5.0 kmh 29.61 in1002.7 mb 0.00 in0.0 mm 0.00 in0.0 mm 0.00 in0.0 mm
10:34 AM 53.6°F12.0°C 15.7°F-9.1°C 22% 1.6 mph NE2.6 kmh NE 3.1 mph5.0 kmh 29.61 in1002.7 mb 0.00 in0.0 mm 0.00 in0.0 mm 0.00 in0.0 mm
10:32 AM 53.6°F12.0°C 15.7°F-9.1°C 22% 1.6 mph NE2.6 kmh NE 3.1 mph5.0 kmh 29.61 in1002.7 mb 0.00 in0.0 mm 0.00 in0.0 mm 0.00 in0.0 mm
10:29 AM 52.9°F11.6°C 15.1°F-9.4°C 22% 2.2 mph SE3.5 kmh SE 3.1 mph5.0 kmh 29.62 in1003.0 mb 0.00 in0.0 mm 0.00 in0.0 mm 0.00 in0.0 mm
10:27 AM 52.9°F11.6°C 15.1°F-9.4°C 22% 2.2 mph SE3.5 kmh SE 3.1 mph5.0 kmh 29.62 in1003.0 mb 0.00 in0.0 mm 0.00 in0.0 mm 0.00 in0.0 mm
10:24 AM 53.2°F11.8°C 16.4°F-8.7°C 23% 2.2 mph SE3.5 kmh SE 3.1 mph5.0 kmh 29.62 in1003.0 mb 0.00 in0.0 mm 0.00 in0.0 mm 0.00 in0.0 mm
10:22 AM 53.2°F11.8°C 16.4°F-8.7°C 23% 2.2 mph SE3.5 kmh SE 3.1 mph5.0 kmh 29.62 in1003.0 mb 0.00 in0.0 mm 0.00 in0.0 mm 0.00 in0.0 mm
10:19 AM 53.2°F11.8°C 16.4°F-8.7°C 23% 1.6 mph SE2.6 kmh SE 2.2 mph3.5 kmh 29.62 in1003.0 mb 0.00 in0.0 mm 0.00 in0.0 mm 0.00 in0.0 mm
10:17 AM 53.2°F11.8°C 16.4°F-8.7°C 23% 1.6 mph SE2.6 kmh SE 2.2 mph3.5 kmh 29.62 in1003.0 mb 0.00 in0.0 mm 0.00 in0.0 mm 0.00 in0.0 mm
10:14 AM 54.0°F12.2°C 14.9°F-9.5°C 21% 1.6 mph NE2.6 kmh NE 3.1 mph5.0 kmh 29.62 in1003.0 mb 0.00 in0.0 mm 0.00 in0.0 mm 0.00 in0.0 mm
10:12 AM 54.0°F12.2°C 14.9°F-9.5°C 21% 1.6 mph NE2.6 kmh NE 3.1 mph5.0 kmh 29.62 in1003.0 mb 0.00 in0.0 mm 0.00 in0.0 mm 0.00 in0.0 mm
10:09 AM 53.8°F12.1°C 17.9°F-7.8°C 24% 0.7 mph NE1.1 kmh NE 1.6 mph2.6 kmh 29.61 in1002.7 mb 0.00 in0.0 mm 0.00 in0.0 mm 0.00 in0.0 mm
10:07 AM 53.8°F12.1°C 17.9°F-7.8°C 24% 0.7 mph NE1.1 kmh NE 1.6 mph2.6 kmh 29.61 in1002.7 mb 0.00 in0.0 mm 0.00 in0.0 mm 0.00 in0.0 mm
10:04 AM 52.2°F11.2°C 16.5°F-8.6°C 24% Calm Calm 0.7 mph1.1 kmh 29.62 in1003.0 mb 0.00 in0.0 mm 0.00 in0.0 mm 0.00 in0.0 mm
10:02 AM 52.2°F11.2°C 16.5°F-8.6°C 24% Calm Calm 0.7 mph1.1 kmh 29.62 in1003.0 mb 0.00 in0.0 mm 0.00 in0.0 mm 0.00 in0.0 mm
09:59 AM 52.0°F11.1°C 16.3°F-8.7°C 24% 2.2 mph SE3.5 kmh SE 3.1 mph5.0 kmh 29.62 in1003.0 mb 0.00 in0.0 mm 0.00 in0.0 mm 0.00 in0.0 mm
09:57 AM 52.0°F11.1°C 16.3°F-8.7°C 24% 2.2 mph SE3.5 kmh SE 3.1 mph5.0 kmh 29.62 in1003.0 mb 0.00 in0.0 mm 0.00 in0.0 mm 0.00 in0.0 mm
09:54 AM 51.8°F11.0°C 17.1°F-8.3°C 25% 1.6 mph SE2.6 kmh SE 2.2 mph3.5 kmh 29.62 in1003.0 mb 0.00 in0.0 mm 0.00 in0.0 mm 0.00 in0.0 mm
09:52 AM 51.8°F11.0°C 17.1°F-8.3°C 25% 1.6 mph SE2.6 kmh SE 2.2 mph3.5 kmh 29.62 in1003.0 mb 0.00 in0.0 mm 0.00 in0.0 mm 0.00 in0.0 mm
09:49 AM 50.5°F10.3°C 16.9°F-8.4°C 26% Calm Calm 0.7 mph1.1 kmh 29.62 in1003.0 mb 0.00 in0.0 mm 0.00 in0.0 mm 0.00 in0.0 mm
09:47 AM 50.5°F10.3°C 16.9°F-8.4°C 26% Calm Calm 0.7 mph1.1 kmh 29.62 in1003.0 mb 0.00 in0.0 mm 0.00 in0.0 mm 0.00 in0.0 mm
09:44 AM 50.5°F10.3°C 16.9°F-8.4°C 26% 0.7 mph S1.1 kmh S 1.6 mph2.6 kmh 29.62 in1003.0 mb 0.00 in0.0 mm 0.00 in0.0 mm 0.00 in0.0 mm
09:42 AM 50.5°F10.3°C 16.9°F-8.4°C 26% 0.7 mph S1.1 kmh S 1.6 mph2.6 kmh 29.62 in1003.0 mb 0.00 in0.0 mm 0.00 in0.0 mm 0.00 in0.0 mm
09:39 AM 48.9°F9.4°C 18.1°F-7.7°C 29% 1.6 mph E2.6 kmh E 2.2 mph3.5 kmh 29.63 in1003.4 mb 0.00 in0.0 mm 0.00 in0.0 mm 0.00 in0.0 mm
09:37 AM 48.9°F9.4°C 18.1°F-7.7°C 29% 1.6 mph E2.6 kmh E 2.2 mph3.5 kmh 29.63 in1003.4 mb 0.00 in0.0 mm 0.00 in0.0 mm 0.00 in0.0 mm
09:34 AM 47.5°F8.6°C 19.1°F-7.2°C 32% 1.6 mph S2.6 kmh S 2.2 mph3.5 kmh 29.63 in1003.4 mb 0.00 in0.0 mm 0.00 in0.0 mm 0.00 in0.0 mm
09:32 AM 47.5°F8.6°C 19.1°F-7.2°C 32% 1.6 mph S2.6 kmh S 2.2 mph3.5 kmh 29.63 in1003.4 mb 0.00 in0.0 mm 0.00 in0.0 mm 0.00 in0.0 mm
09:29 AM 46.6°F8.1°C 18.3°F-7.6°C 32% Calm Calm 0.7 mph1.1 kmh 29.63 in1003.4 mb 0.00 in0.0 mm 0.00 in0.0 mm 0.00 in0.0 mm
09:27 AM 46.6°F8.1°C 18.3°F-7.6°C 32% Calm Calm 0.7 mph1.1 kmh 29.63 in1003.4 mb 0.00 in0.0 mm 0.00 in0.0 mm 0.00 in0.0 mm
09:24 AM 46.2°F7.9°C 15.7°F-9.1°C 29% Calm Calm 0.7 mph1.1 kmh 29.63 in1003.4 mb 0.00 in0.0 mm 0.00 in0.0 mm 0.00 in0.0 mm
09:22 AM 46.2°F7.9°C 15.7°F-9.1°C 29% Calm Calm 0.7 mph1.1 kmh 29.63 in1003.4 mb 0.00 in0.0 mm 0.00 in0.0 mm 0.00 in0.0 mm
09:19 AM 46.0°F7.8°C 15.6°F-9.1°C 29% 0.7 mph S1.1 kmh S 1.6 mph2.6 kmh 29.63 in1003.4 mb 0.00 in0.0 mm 0.00 in0.0 mm 0.00 in0.0 mm
09:16 AM 46.0°F7.8°C 15.6°F-9.1°C 29% 0.7 mph S1.1 kmh S 1.6 mph2.6 kmh 29.63 in1003.4 mb 0.00 in0.0 mm 0.00 in0.0 mm 0.00 in0.0 mm
09:14 AM 46.0°F7.8°C 15.6°F-9.1°C 29% 1.6 mph SW2.6 kmh SW 2.2 mph3.5 kmh 29.62 in1003.0 mb 0.00 in0.0 mm 0.00 in0.0 mm 0.00 in0.0 mm
09:11 AM 46.0°F7.8°C 15.6°F-9.1°C 29% 1.6 mph SW2.6 kmh SW 2.2 mph3.5 kmh 29.62 in1003.0 mb 0.00 in0.0 mm 0.00 in0.0 mm 0.00 in0.0 mm
09:09 AM 46.0°F7.8°C 17.1°F-8.3°C 31% Calm Calm 0.7 mph1.1 kmh 29.63 in1003.4 mb 0.00 in0.0 mm 0.00 in0.0 mm 0.00 in0.0 mm
09:06 AM 46.0°F7.8°C 17.1°F-8.3°C 31% Calm Calm 0.7 mph1.1 kmh 29.63 in1003.4 mb 0.00 in0.0 mm 0.00 in0.0 mm 0.00 in0.0 mm
09:04 AM 44.6°F7.0°C 17.3°F-8.2°C 33% 0.7 mph E1.1 kmh E 1.6 mph2.6 kmh 29.63 in1003.4 mb 0.00 in0.0 mm 0.00 in0.0 mm 0.00 in0.0 mm
09:01 AM 44.6°F7.0°C 17.3°F-8.2°C 33% 0.7 mph E1.1 kmh E 1.6 mph2.6 kmh 29.63 in1003.4 mb 0.00 in0.0 mm 0.00 in0.0 mm 0.00 in0.0 mm
08:59 AM 43.0°F6.1°C 15.9°F-8.9°C 33% 0.7 mph E1.1 kmh E 1.6 mph2.6 kmh 29.64 in1003.7 mb 0.00 in0.0 mm 0.00 in0.0 mm 0.00 in0.0 mm
08:56 AM 43.0°F6.1°C 15.9°F-8.9°C 33% 0.7 mph E1.1 kmh E 1.6 mph2.6 kmh 29.64 in1003.7 mb 0.00 in0.0 mm 0.00 in0.0 mm 0.00 in0.0 mm
08:54 AM 42.8°F6.0°C 19.0°F-7.2°C 38% 1.6 mph SE2.6 kmh SE 2.2 mph3.5 kmh 29.63 in1003.4 mb 0.00 in0.0 mm 0.00 in0.0 mm 0.00 in0.0 mm
08:51 AM 42.8°F6.0°C 19.0°F-7.2°C 38% 1.6 mph SE2.6 kmh SE 2.2 mph3.5 kmh 29.63 in1003.4 mb 0.00 in0.0 mm 0.00 in0.0 mm 0.00 in0.0 mm
08:49 AM 41.7°F5.4°C 19.8°F-6.8°C 41% 1.6 mph SE2.6 kmh SE 3.1 mph5.0 kmh 29.64 in1003.7 mb 0.00 in0.0 mm 0.00 in0.0 mm 0.00 in0.0 mm
08:46 AM 41.7°F5.4°C 19.8°F-6.8°C 41% 1.6 mph SE2.6 kmh SE 3.1 mph5.0 kmh 29.64 in1003.7 mb 0.00 in0.0 mm 0.00 in0.0 mm 0.00 in0.0 mm
08:44 AM 41.0°F5.0°C 18.0°F-7.8°C 39% Calm Calm 1.6 mph2.6 kmh 29.64 in1003.7 mb 0.00 in0.0 mm 0.00 in0.0 mm 0.00 in0.0 mm
08:41 AM 41.0°F5.0°C 18.0°F-7.8°C 39% Calm Calm 1.6 mph2.6 kmh 29.64 in1003.7 mb 0.00 in0.0 mm 0.00 in0.0 mm 0.00 in0.0 mm
08:39 AM 40.3°F4.6°C 18.5°F-7.5°C 41% Calm Calm 0.7 mph1.1 kmh 29.64 in1003.7 mb 0.00 in0.0 mm 0.00 in0.0 mm 0.00 in0.0 mm
08:36 AM 40.3°F4.6°C 18.5°F-7.5°C 41% Calm Calm 0.7 mph1.1 kmh 29.64 in1003.7 mb 0.00 in0.0 mm 0.00 in0.0 mm 0.00 in0.0 mm
08:34 AM 39.6°F4.2°C 18.4°F-7.6°C 42% Calm Calm 1.6 mph2.6 kmh 29.64 in1003.7 mb 0.00 in0.0 mm 0.00 in0.0 mm 0.00 in0.0 mm
08:31 AM 39.6°F4.2°C 18.4°F-7.6°C 42% Calm Calm 1.6 mph2.6 kmh 29.64 in1003.7 mb 0.00 in0.0 mm 0.00 in0.0 mm 0.00 in0.0 mm
08:29 AM 39.0°F3.9°C 18.4°F-7.6°C 43% Calm Calm 0.7 mph1.1 kmh 29.64 in1003.7 mb 0.00 in0.0 mm 0.00 in0.0 mm 0.00 in0.0 mm
08:26 AM 39.0°F3.9°C 18.4°F-7.6°C 43% Calm Calm 0.7 mph1.1 kmh 29.64 in1003.7 mb 0.00 in0.0 mm 0.00 in0.0 mm 0.00 in0.0 mm
08:24 AM 38.8°F3.8°C 18.3°F-7.6°C 43% Calm Calm -- 29.63 in1003.4 mb 0.00 in0.0 mm 0.00 in0.0 mm 0.00 in0.0 mm
08:21 AM 38.8°F3.8°C 18.3°F-7.6°C 43% Calm Calm -- 29.63 in1003.4 mb 0.00 in0.0 mm 0.00 in0.0 mm 0.00 in0.0 mm
08:19 AM 38.7°F3.7°C 19.2°F-7.1°C 45% 0.7 mph SE1.1 kmh SE 1.6 mph2.6 kmh 29.63 in1003.4 mb 0.00 in0.0 mm 0.00 in0.0 mm 0.00 in0.0 mm
08:16 AM 38.7°F3.7°C 19.2°F-7.1°C 45% 0.7 mph SE1.1 kmh SE 1.6 mph2.6 kmh 29.63 in1003.4 mb 0.00 in0.0 mm 0.00 in0.0 mm 0.00 in0.0 mm
08:14 AM 38.7°F3.7°C 23.9°F-4.5°C 55% 1.6 mph SE2.6 kmh SE 2.2 mph3.5 kmh 29.62 in1003.0 mb 0.00 in0.0 mm 0.00 in0.0 mm 0.00 in0.0 mm
08:11 AM 38.7°F3.7°C 23.9°F-4.5°C 55% 1.6 mph SE2.6 kmh SE 2.2 mph3.5 kmh 29.62 in1003.0 mb 0.00 in0.0 mm 0.00 in0.0 mm 0.00 in0.0 mm
08:09 AM 36.5°F2.5°C 21.9°F-5.6°C 55% 1.6 mph SE2.6 kmh SE 2.2 mph3.5 kmh 29.63 in1003.4 mb 0.00 in0.0 mm 0.00 in0.0 mm 0.00 in0.0 mm
08:06 AM 36.5°F2.5°C 21.9°F-5.6°C 55% 1.6 mph SE2.6 kmh SE 2.2 mph3.5 kmh 29.63 in1003.4 mb 0.00 in0.0 mm 0.00 in0.0 mm 0.00 in0.0 mm
08:03 AM 34.0°F1.1°C 18.2°F-7.7°C 52% 0.7 mph SE1.1 kmh SE 1.6 mph2.6 kmh 29.62 in1003.0 mb 0.00 in0.0 mm 0.00 in0.0 mm 0.00 in0.0 mm
08:01 AM 34.0°F1.1°C 18.2°F-7.7°C 52% 0.7 mph SE1.1 kmh SE 1.6 mph2.6 kmh 29.62 in1003.0 mb 0.00 in0.0 mm 0.00 in0.0 mm 0.00 in0.0 mm
07:58 AM 32.7°F0.4°C 16.6°F-8.6°C 51% Calm Calm -- 29.62 in1003.0 mb 0.00 in0.0 mm 0.00 in0.0 mm 0.00 in0.0 mm
07:56 AM 32.7°F0.4°C 16.6°F-8.6°C 51% Calm Calm -- 29.62 in1003.0 mb 0.00 in0.0 mm 0.00 in0.0 mm 0.00 in0.0 mm
07:53 AM 32.4°F0.2°C 16.7°F-8.5°C 52% 0.7 mph SE1.1 kmh SE 1.6 mph2.6 kmh 29.62 in1003.0 mb 0.00 in0.0 mm 0.00 in0.0 mm 0.00 in0.0 mm
07:51 AM 32.4°F0.2°C 16.7°F-8.5°C 52% 0.7 mph SE1.1 kmh SE 1.6 mph2.6 kmh 29.62 in1003.0 mb 0.00 in0.0 mm 0.00 in0.0 mm 0.00 in0.0 mm
07:48 AM 31.3°F-0.4°C 16.6°F-8.6°C 54% Calm Calm -- 29.62 in1003.0 mb 0.00 in0.0 mm 0.00 in0.0 mm 0.00 in0.0 mm
07:46 AM 31.3°F-0.4°C 16.6°F-8.6°C 54% Calm Calm -- 29.62 in1003.0 mb 0.00 in0.0 mm 0.00 in0.0 mm 0.00 in0.0 mm
07:43 AM 30.0°F-1.1°C 15.8°F-9.0°C 55% Calm Calm -- 29.61 in1002.7 mb 0.00 in0.0 mm 0.00 in0.0 mm 0.00 in0.0 mm
07:41 AM 30.0°F-1.1°C 15.8°F-9.0°C 55% Calm Calm -- 29.61 in1002.7 mb 0.00 in0.0 mm 0.00 in0.0 mm 0.00 in0.0 mm
07:38 AM 29.5°F-1.4°C 15.3°F-9.3°C 55% Calm Calm -- 29.62 in1003.0 mb 0.00 in0.0 mm 0.00 in0.0 mm 0.00 in0.0 mm
07:36 AM 29.5°F-1.4°C 15.3°F-9.3°C 55% Calm Calm -- 29.62 in1003.0 mb 0.00 in0.0 mm 0.00 in0.0 mm 0.00 in0.0 mm
07:33 AM 29.1°F-1.6°C 15.0°F-9.4°C 55% Calm Calm -- 29.62 in1003.0 mb 0.00 in0.0 mm 0.00 in0.0 mm 0.00 in0.0 mm
07:31 AM 29.1°F-1.6°C 15.0°F-9.4°C 55% Calm Calm -- 29.62 in1003.0 mb 0.00 in0.0 mm 0.00 in0.0 mm 0.00 in0.0 mm
07:28 AM 28.9°F-1.7°C 15.2°F-9.3°C 56% Calm Calm 0.7 mph1.1 kmh 29.61 in1002.7 mb 0.00 in0.0 mm 0.00 in0.0 mm 0.00 in0.0 mm
07:26 AM 28.9°F-1.7°C 15.2°F-9.3°C 56% Calm Calm 0.7 mph1.1 kmh 29.61 in1002.7 mb 0.00 in0.0 mm 0.00 in0.0 mm 0.00 in0.0 mm
07:23 AM 28.6°F-1.9°C 15.3°F-9.3°C 57% Calm Calm -- 29.61 in1002.7 mb 0.00 in0.0 mm 0.00 in0.0 mm 0.00 in0.0 mm
07:21 AM 28.6°F-1.9°C 15.3°F-9.3°C 57% Calm Calm -- 29.61 in1002.7 mb 0.00 in0.0 mm 0.00 in0.0 mm 0.00 in0.0 mm
07:18 AM 28.2°F-2.1°C 12.4°F-10.9°C 51% Calm Calm 0.7 mph1.1 kmh 29.61 in1002.7 mb 0.00 in0.0 mm 0.00 in0.0 mm 0.00 in0.0 mm
07:16 AM 28.2°F-2.1°C 12.4°F-10.9°C 51% Calm Calm 0.7 mph1.1 kmh 29.61 in1002.7 mb 0.00 in0.0 mm 0.00 in0.0 mm 0.00 in0.0 mm
07:13 AM 27.9°F-2.3°C 12.1°F-11.1°C 51% Calm Calm 0.7 mph1.1 kmh 29.61 in1002.7 mb 0.00 in0.0 mm 0.00 in0.0 mm 0.00 in0.0 mm
07:11 AM 27.9°F-2.3°C 12.1°F-11.1°C 51% Calm Calm 0.7 mph1.1 kmh 29.61 in1002.7 mb 0.00 in0.0 mm 0.00 in0.0 mm 0.00 in0.0 mm
07:08 AM 27.9°F-2.3°C 12.5°F-10.8°C 52% Calm Calm -- 29.61 in1002.7 mb 0.00 in0.0 mm 0.00 in0.0 mm 0.00 in0.0 mm
07:06 AM 27.9°F-2.3°C 12.5°F-10.8°C 52% Calm Calm -- 29.61 in1002.7 mb 0.00 in0.0 mm 0.00 in0.0 mm 0.00 in0.0 mm
07:03 AM 27.9°F-2.3°C 12.5°F-10.8°C 52% Calm Calm -- 29.61 in1002.7 mb 0.00 in0.0 mm 0.00 in0.0 mm 0.00 in0.0 mm
07:01 AM 27.9°F-2.3°C 12.5°F-10.8°C 52% Calm Calm -- 29.61 in1002.7 mb 0.00 in0.0 mm 0.00 in0.0 mm 0.00 in0.0 mm
06:58 AM 27.9°F-2.3°C 13.0°F-10.6°C 53% Calm Calm -- 29.61 in1002.7 mb 0.00 in0.0 mm 0.00 in0.0 mm 0.00 in0.0 mm
06:56 AM 27.9°F-2.3°C 13.0°F-10.6°C 53% Calm Calm -- 29.61 in1002.7 mb 0.00 in0.0 mm 0.00 in0.0 mm 0.00 in0.0 mm
06:53 AM 27.7°F-2.4°C 11.9°F-11.2°C 51% Calm Calm -- 29.61 in1002.7 mb 0.00 in0.0 mm 0.00 in0.0 mm 0.00 in0.0 mm
06:51 AM 27.7°F-2.4°C 11.9°F-11.2°C 51% Calm Calm -- 29.61 in1002.7 mb 0.00 in0.0 mm 0.00 in0.0 mm 0.00 in0.0 mm
06:48 AM 27.7°F-2.4°C 11.5°F-11.4°C 50% Calm Calm 0.7 mph1.1 kmh 29.61 in1002.7 mb 0.00 in0.0 mm 0.00 in0.0 mm 0.00 in0.0 mm
06:45 AM 27.7°F-2.4°C 11.5°F-11.4°C 50% Calm Calm 0.7 mph1.1 kmh 29.61 in1002.7 mb 0.00 in0.0 mm 0.00 in0.0 mm 0.00 in0.0 mm
06:43 AM 27.9°F-2.3°C 11.7°F-11.3°C 50% Calm Calm -- 29.62 in1003.0 mb 0.00 in0.0 mm 0.00 in0.0 mm 0.00 in0.0 mm
06:40 AM 27.9°F-2.3°C 11.7°F-11.3°C 50% Calm Calm -- 29.62 in1003.0 mb 0.00 in0.0 mm 0.00 in0.0 mm 0.00 in0.0 mm
06:38 AM 28.0°F-2.2°C 12.3°F-10.9°C 51% Calm Calm -- 29.61 in1002.7 mb 0.00 in0.0 mm 0.00 in0.0 mm 0.00 in0.0 mm
06:35 AM 28.0°F-2.2°C 12.3°F-10.9°C 51% Calm Calm -- 29.61 in1002.7 mb 0.00 in0.0 mm 0.00 in0.0 mm 0.00 in0.0 mm
06:33 AM 28.2°F-2.1°C 12.4°F-10.9°C 51% 1.6 mph SE2.6 kmh SE 2.2 mph3.5 kmh 29.61 in1002.7 mb 0.00 in0.0 mm 0.00 in0.0 mm 0.00 in0.0 mm
06:30 AM 28.2°F-2.1°C 12.4°F-10.9°C 51% 1.6 mph SE2.6 kmh SE 2.2 mph3.5 kmh 29.61 in1002.7 mb 0.00 in0.0 mm 0.00 in0.0 mm 0.00 in0.0 mm
06:28 AM 28.0°F-2.2°C 12.3°F-10.9°C 51% 1.6 mph ENE2.6 kmh ENE 2.2 mph3.5 kmh 29.61 in1002.7 mb 0.00 in0.0 mm 0.00 in0.0 mm 0.00 in0.0 mm
06:25 AM 28.0°F-2.2°C 12.3°F-10.9°C 51% 1.6 mph ENE2.6 kmh ENE 2.2 mph3.5 kmh 29.61 in1002.7 mb 0.00 in0.0 mm 0.00 in0.0 mm 0.00 in0.0 mm
06:23 AM 27.7°F-2.4°C 11.9°F-11.2°C 51% 1.6 mph 2.6 kmh 2.2 mph3.5 kmh 29.61 in1002.7 mb 0.00 in0.0 mm 0.00 in0.0 mm 0.00 in0.0 mm
06:20 AM 27.7°F-2.4°C 11.9°F-11.2°C 51% 1.6 mph 2.6 kmh 2.2 mph3.5 kmh 29.61 in1002.7 mb 0.00 in0.0 mm 0.00 in0.0 mm 0.00 in0.0 mm
06:18 AM 26.8°F-2.9°C 10.7°F-11.8°C 50% Calm Calm -- 29.62 in1003.0 mb 0.00 in0.0 mm 0.00 in0.0 mm 0.00 in0.0 mm
06:15 AM 26.8°F-2.9°C 10.7°F-11.8°C 50% Calm Calm -- 29.62 in1003.0 mb 0.00 in0.0 mm 0.00 in0.0 mm 0.00 in0.0 mm
06:13 AM 27.0°F-2.8°C 10.8°F-11.8°C 50% Calm Calm -- 29.62 in1003.0 mb 0.00 in0.0 mm 0.00 in0.0 mm 0.00 in0.0 mm
06:10 AM 27.0°F-2.8°C 10.8°F-11.8°C 50% Calm Calm -- 29.62 in1003.0 mb 0.00 in0.0 mm 0.00 in0.0 mm 0.00 in0.0 mm
06:08 AM 27.0°F-2.8°C 10.8°F-11.8°C 50% Calm Calm -- 29.61 in1002.7 mb 0.00 in0.0 mm 0.00 in0.0 mm 0.00 in0.0 mm
06:05 AM 27.0°F-2.8°C 10.8°F-11.8°C 50% Calm Calm -- 29.61 in1002.7 mb 0.00 in0.0 mm 0.00 in0.0 mm 0.00 in0.0 mm
06:03 AM 27.0°F-2.8°C 10.8°F-11.8°C 50% Calm Calm -- 29.61 in1002.7 mb 0.00 in0.0 mm 0.00 in0.0 mm 0.00 in0.0 mm
06:00 AM 27.0°F-2.8°C 10.8°F-11.8°C 50% Calm Calm -- 29.61 in1002.7 mb 0.00 in0.0 mm 0.00 in0.0 mm 0.00 in0.0 mm
05:58 AM 27.0°F-2.8°C 10.8°F-11.8°C 50% Calm Calm -- 29.62 in1003.0 mb 0.00 in0.0 mm 0.00 in0.0 mm 0.00 in0.0 mm
05:55 AM 27.0°F-2.8°C 10.8°F-11.8°C 50% Calm Calm -- 29.62 in1003.0 mb 0.00 in0.0 mm 0.00 in0.0 mm 0.00 in0.0 mm
05:53 AM 27.1°F-2.7°C 11.0°F-11.7°C 50% Calm Calm -- 29.62 in1003.0 mb 0.00 in0.0 mm 0.00 in0.0 mm 0.00 in0.0 mm
05:50 AM 27.1°F-2.7°C 10.5°F-11.9°C 49% Calm Calm -- 29.62 in1003.0 mb 0.00 in0.0 mm 0.00 in0.0 mm 0.00 in0.0 mm
05:48 AM 27.1°F-2.7°C 10.5°F-11.9°C 49% Calm Calm -- 29.62 in1003.0 mb 0.00 in0.0 mm 0.00 in0.0 mm 0.00 in0.0 mm
05:45 AM 27.1°F-2.7°C 10.5°F-11.9°C 49% Calm Calm -- 29.62 in1003.0 mb 0.00 in0.0 mm 0.00 in0.0 mm 0.00 in0.0 mm
05:43 AM 27.3°F-2.6°C 10.7°F-11.8°C 49% Calm Calm -- 29.61 in1002.7 mb 0.00 in0.0 mm 0.00 in0.0 mm 0.00 in0.0 mm
05:40 AM 27.3°F-2.6°C 10.7°F-11.8°C 49% Calm Calm -- 29.61 in1002.7 mb 0.00 in0.0 mm 0.00 in0.0 mm 0.00 in0.0 mm
05:38 AM 27.5°F-2.5°C 10.9°F-11.7°C 49% Calm Calm -- 29.62 in1003.0 mb 0.00 in0.0 mm 0.00 in0.0 mm 0.00 in0.0 mm
05:35 AM 27.5°F-2.5°C 10.9°F-11.7°C 49% Calm Calm -- 29.62 in1003.0 mb 0.00 in0.0 mm 0.00 in0.0 mm 0.00 in0.0 mm
05:32 AM 27.9°F-2.3°C 10.7°F-11.8°C 48% Calm Calm -- 29.62 in1003.0 mb 0.00 in0.0 mm 0.00 in0.0 mm 0.00 in0.0 mm
05:30 AM 28.0°F-2.2°C 10.9°F-11.7°C 48% Calm Calm -- 29.62 in1003.0 mb 0.00 in0.0 mm 0.00 in0.0 mm 0.00 in0.0 mm
05:27 AM 28.0°F-2.2°C 10.9°F-11.7°C 48% Calm Calm -- 29.62 in1003.0 mb 0.00 in0.0 mm 0.00 in0.0 mm 0.00 in0.0 mm
05:25 AM 28.0°F-2.2°C 10.9°F-11.7°C 48% Calm Calm -- 29.62 in1003.0 mb 0.00 in0.0 mm 0.00 in0.0 mm 0.00 in0.0 mm
05:22 AM 28.4°F-2.0°C 13.5°F-10.3°C 53% Calm Calm -- 29.62 in1003.0 mb 0.00 in0.0 mm 0.00 in0.0 mm 0.00 in0.0 mm
05:20 AM 28.4°F-2.0°C 13.5°F-10.3°C 53% Calm Calm -- 29.62 in1003.0 mb 0.00 in0.0 mm 0.00 in0.0 mm 0.00 in0.0 mm
05:17 AM 28.8°F-1.8°C 13.8°F-10.1°C 53% Calm Calm -- 29.62 in1003.0 mb 0.00 in0.0 mm 0.00 in0.0 mm 0.00 in0.0 mm
05:15 AM 28.9°F-1.7°C 14.4°F-9.8°C 54% Calm Calm 0.7 mph1.1 kmh 29.62 in1003.0 mb 0.00 in0.0 mm 0.00 in0.0 mm 0.00 in0.0 mm
05:12 AM 28.9°F-1.7°C 14.4°F-9.8°C 54% Calm Calm 0.7 mph1.1 kmh 29.62 in1003.0 mb 0.00 in0.0 mm 0.00 in0.0 mm 0.00 in0.0 mm
05:10 AM 28.0°F-2.2°C 10.9°F-11.7°C 48% Calm Calm 0.7 mph1.1 kmh 29.62 in1003.0 mb 0.00 in0.0 mm 0.00 in0.0 mm 0.00 in0.0 mm
05:07 AM 28.0°F-2.2°C 10.9°F-11.7°C 48% Calm Calm 0.7 mph1.1 kmh 29.62 in1003.0 mb 0.00 in0.0 mm 0.00 in0.0 mm 0.00 in0.0 mm
05:05 AM 28.0°F-2.2°C 10.9°F-11.7°C 48% Calm Calm 0.7 mph1.1 kmh 29.62 in1003.0 mb 0.00 in0.0 mm 0.00 in0.0 mm 0.00 in0.0 mm
05:02 AM 28.0°F-2.2°C 10.9°F-11.7°C 48% Calm Calm 0.7 mph1.1 kmh 29.61 in1002.7 mb 0.00 in0.0 mm 0.00 in0.0 mm 0.00 in0.0 mm
05:00 AM 28.4°F-2.0°C 13.0°F-10.6°C 52% Calm Calm -- 29.62 in1003.0 mb 0.00 in0.0 mm 0.00 in0.0 mm 0.00 in0.0 mm
04:57 AM 28.4°F-2.0°C 13.0°F-10.6°C 52% Calm Calm -- 29.62 in1003.0 mb 0.00 in0.0 mm 0.00 in0.0 mm 0.00 in0.0 mm
04:55 AM 28.6°F-1.9°C 13.2°F-10.4°C 52% Calm Calm 0.7 mph1.1 kmh 29.62 in1003.0 mb 0.00 in0.0 mm 0.00 in0.0 mm 0.00 in0.0 mm
04:52 AM 28.6°F-1.9°C 13.2°F-10.4°C 52% Calm Calm 0.7 mph1.1 kmh 29.62 in1003.0 mb 0.00 in0.0 mm 0.00 in0.0 mm 0.00 in0.0 mm
04:50 AM 28.2°F-2.1°C 11.1°F-11.6°C 48% Calm Calm -- 29.61 in1002.7 mb 0.00 in0.0 mm 0.00 in0.0 mm 0.00 in0.0 mm
04:47 AM 28.2°F-2.1°C 11.1°F-11.6°C 48% Calm Calm -- 29.61 in1002.7 mb 0.00 in0.0 mm 0.00 in0.0 mm 0.00 in0.0 mm
04:45 AM 28.2°F-2.1°C 11.1°F-11.6°C 48% Calm Calm -- 29.61 in1002.7 mb 0.00 in0.0 mm 0.00 in0.0 mm 0.00 in0.0 mm
04:42 AM 28.0°F-2.2°C 10.9°F-11.7°C 48% Calm Calm -- 29.62 in1003.0 mb 0.00 in0.0 mm 0.00 in0.0 mm 0.00 in0.0 mm
04:40 AM 28.2°F-2.1°C 11.1°F-11.6°C 48% Calm Calm -- 29.61 in1002.7 mb 0.00 in0.0 mm 0.00 in0.0 mm 0.00 in0.0 mm
04:37 AM 28.2°F-2.1°C 11.1°F-11.6°C 48% Calm Calm -- 29.61 in1002.7 mb 0.00 in0.0 mm 0.00 in0.0 mm 0.00 in0.0 mm
04:35 AM 28.2°F-2.1°C 11.1°F-11.6°C 48% Calm Calm -- 29.61 in1002.7 mb 0.00 in0.0 mm 0.00 in0.0 mm 0.00 in0.0 mm
04:32 AM 28.2°F-2.1°C 11.1°F-11.6°C 48% Calm Calm -- 29.61 in1002.7 mb 0.00 in0.0 mm 0.00 in0.0 mm 0.00 in0.0 mm
04:30 AM 28.4°F-2.0°C 13.0°F-10.6°C 52% Calm Calm 0.7 mph1.1 kmh 29.62 in1003.0 mb 0.00 in0.0 mm 0.00 in0.0 mm 0.00 in0.0 mm
04:27 AM 28.4°F-2.0°C 13.0°F-10.6°C 52% Calm Calm 0.7 mph1.1 kmh 29.62 in1003.0 mb 0.00 in0.0 mm 0.00 in0.0 mm 0.00 in0.0 mm
04:25 AM 28.6°F-1.9°C 13.2°F-10.4°C 52% Calm Calm -- 29.62 in1003.0 mb 0.00 in0.0 mm 0.00 in0.0 mm 0.00 in0.0 mm
04:22 AM 28.6°F-1.9°C 13.2°F-10.4°C 52% Calm Calm -- 29.62 in1003.0 mb 0.00 in0.0 mm 0.00 in0.0 mm 0.00 in0.0 mm
04:20 AM 28.8°F-1.8°C 13.4°F-10.3°C 52% Calm Calm 0.7 mph1.1 kmh 29.61 in1002.7 mb 0.00 in0.0 mm 0.00 in0.0 mm 0.00 in0.0 mm
04:17 AM 28.8°F-1.8°C 13.4°F-10.3°C 52% Calm Calm 0.7 mph1.1 kmh 29.61 in1002.7 mb 0.00 in0.0 mm 0.00 in0.0 mm 0.00 in0.0 mm
04:14 AM 28.9°F-1.7°C 12.7°F-10.7°C 50% Calm Calm -- 29.62 in1003.0 mb 0.00 in0.0 mm 0.00 in0.0 mm 0.00 in0.0 mm
04:12 AM 28.9°F-1.7°C 12.7°F-10.7°C 50% Calm Calm -- 29.62 in1003.0 mb 0.00 in0.0 mm 0.00 in0.0 mm 0.00 in0.0 mm
04:09 AM 29.1°F-1.6°C 12.4°F-10.9°C 49% Calm Calm -- 29.62 in1003.0 mb 0.00 in0.0 mm 0.00 in0.0 mm 0.00 in0.0 mm
04:07 AM 29.1°F-1.6°C 12.4°F-10.9°C 49% Calm Calm -- 29.62 in1003.0 mb 0.00 in0.0 mm 0.00 in0.0 mm 0.00 in0.0 mm
04:04 AM 29.3°F-1.5°C 12.5°F-10.8°C 49% Calm Calm -- 29.62 in1003.0 mb 0.00 in0.0 mm 0.00 in0.0 mm 0.00 in0.0 mm
04:02 AM 29.3°F-1.5°C 12.5°F-10.8°C 49% Calm Calm -- 29.62 in1003.0 mb 0.00 in0.0 mm 0.00 in0.0 mm 0.00 in0.0 mm
03:59 AM 29.3°F-1.5°C 12.5°F-10.8°C 49% Calm Calm -- 29.63 in1003.4 mb 0.00 in0.0 mm 0.00 in0.0 mm 0.00 in0.0 mm
03:57 AM 29.3°F-1.5°C 12.5°F-10.8°C 49% Calm Calm -- 29.63 in1003.4 mb 0.00 in0.0 mm 0.00 in0.0 mm 0.00 in0.0 mm
03:54 AM 29.8°F-1.2°C 13.0°F-10.6°C 49% Calm Calm -- 29.62 in1003.0 mb 0.00 in0.0 mm 0.00 in0.0 mm 0.00 in0.0 mm
03:52 AM 29.8°F-1.2°C 13.0°F-10.6°C 49% Calm Calm -- 29.62 in1003.0 mb 0.00 in0.0 mm 0.00 in0.0 mm 0.00 in0.0 mm
03:49 AM 29.7°F-1.3°C 12.4°F-10.9°C 48% Calm Calm 0.7 mph1.1 kmh 29.63 in1003.4 mb 0.00 in0.0 mm 0.00 in0.0 mm 0.00 in0.0 mm
03:47 AM 29.7°F-1.3°C 12.4°F-10.9°C 48% Calm Calm 0.7 mph1.1 kmh 29.63 in1003.4 mb 0.00 in0.0 mm 0.00 in0.0 mm 0.00 in0.0 mm
03:44 AM 29.7°F-1.3°C 12.9°F-10.6°C 49% Calm Calm -- 29.62 in1003.0 mb 0.00 in0.0 mm 0.00 in0.0 mm 0.00 in0.0 mm
03:42 AM 29.7°F-1.3°C 12.9°F-10.6°C 49% Calm Calm -- 29.62 in1003.0 mb 0.00 in0.0 mm 0.00 in0.0 mm 0.00 in0.0 mm
03:39 AM 29.5°F-1.4°C 12.7°F-10.7°C 49% Calm Calm 0.7 mph1.1 kmh 29.62 in1003.0 mb 0.00 in0.0 mm 0.00 in0.0 mm 0.00 in0.0 mm
03:37 AM 29.5°F-1.4°C 12.7°F-10.7°C 49% Calm Calm 0.7 mph1.1 kmh 29.62 in1003.0 mb 0.00 in0.0 mm 0.00 in0.0 mm 0.00 in0.0 mm
03:34 AM 29.5°F-1.4°C 12.7°F-10.7°C 49% Calm Calm -- 29.63 in1003.4 mb 0.00 in0.0 mm 0.00 in0.0 mm 0.00 in0.0 mm
03:32 AM 29.5°F-1.4°C 12.7°F-10.7°C 49% Calm Calm -- 29.63 in1003.4 mb 0.00 in0.0 mm 0.00 in0.0 mm 0.00 in0.0 mm
03:29 AM 29.5°F-1.4°C 12.2°F-11.0°C 48% Calm Calm -- 29.62 in1003.0 mb 0.00 in0.0 mm 0.00 in0.0 mm 0.00 in0.0 mm
03:27 AM 29.5°F-1.4°C 12.2°F-11.0°C 48% Calm Calm -- 29.62 in1003.0 mb 0.00 in0.0 mm 0.00 in0.0 mm 0.00 in0.0 mm
03:24 AM 29.7°F-1.3°C 11.9°F-11.2°C 47% Calm Calm 0.7 mph1.1 kmh 29.61 in1002.7 mb 0.00 in0.0 mm 0.00 in0.0 mm 0.00 in0.0 mm
03:22 AM 29.7°F-1.3°C 11.9°F-11.2°C 47% Calm Calm 0.7 mph1.1 kmh 29.61 in1002.7 mb 0.00 in0.0 mm 0.00 in0.0 mm 0.00 in0.0 mm
03:19 AM 30.0°F-1.1°C 12.3°F-10.9°C 47% Calm Calm -- 29.62 in1003.0 mb 0.00 in0.0 mm 0.00 in0.0 mm 0.00 in0.0 mm
03:17 AM 30.0°F-1.1°C 12.3°F-10.9°C 47% Calm Calm -- 29.62 in1003.0 mb 0.00 in0.0 mm 0.00 in0.0 mm 0.00 in0.0 mm
03:14 AM 30.2°F-1.0°C 11.4°F-11.4°C 45% Calm Calm -- 29.62 in1003.0 mb 0.00 in0.0 mm 0.00 in0.0 mm 0.00 in0.0 mm
03:12 AM 30.2°F-1.0°C 11.4°F-11.4°C 45% Calm Calm -- 29.62 in1003.0 mb 0.00 in0.0 mm 0.00 in0.0 mm 0.00 in0.0 mm
03:09 AM 30.6°F-0.8°C 12.3°F-10.9°C 46% Calm Calm -- 29.62 in1003.0 mb 0.00 in0.0 mm 0.00 in0.0 mm 0.00 in0.0 mm
03:07 AM 30.6°F-0.8°C 12.3°F-10.9°C 46% Calm Calm -- 29.62 in1003.0 mb 0.00 in0.0 mm 0.00 in0.0 mm 0.00 in0.0 mm
03:04 AM 30.6°F-0.8°C 12.3°F-10.9°C 46% Calm Calm -- 29.62 in1003.0 mb 0.00 in0.0 mm 0.00 in0.0 mm 0.00 in0.0 mm
03:01 AM 30.6°F-0.8°C 12.3°F-10.9°C 46% Calm Calm -- 29.62 in1003.0 mb 0.00 in0.0 mm 0.00 in0.0 mm 0.00 in0.0 mm
02:59 AM 30.6°F-0.8°C 12.3°F-10.9°C 46% 0.7 mph E1.1 kmh E 1.6 mph2.6 kmh 29.62 in1003.0 mb 0.00 in0.0 mm 0.00 in0.0 mm 0.00 in0.0 mm
02:56 AM 30.6°F-0.8°C 12.3°F-10.9°C 46% 0.7 mph E1.1 kmh E 1.6 mph2.6 kmh 29.62 in1003.0 mb 0.00 in0.0 mm 0.00 in0.0 mm 0.00 in0.0 mm
02:54 AM 30.6°F-0.8°C 11.8°F-11.2°C 45% 0.7 mph E1.1 kmh E 1.6 mph2.6 kmh 29.61 in1002.7 mb 0.00 in0.0 mm 0.00 in0.0 mm 0.00 in0.0 mm
02:51 AM 30.6°F-0.8°C 11.8°F-11.2°C 45% 0.7 mph E1.1 kmh E 1.6 mph2.6 kmh 29.61 in1002.7 mb 0.00 in0.0 mm 0.00 in0.0 mm 0.00 in0.0 mm
02:49 AM 30.4°F-0.9°C 12.1°F-11.1°C 46% Calm Calm 0.7 mph1.1 kmh 29.62 in1003.0 mb 0.00 in0.0 mm 0.00 in0.0 mm 0.00 in0.0 mm
02:46 AM 30.4°F-0.9°C 12.1°F-11.1°C 46% Calm Calm 0.7 mph1.1 kmh 29.62 in1003.0 mb 0.00 in0.0 mm 0.00 in0.0 mm 0.00 in0.0 mm
02:44 AM 30.4°F-0.9°C 12.1°F-11.1°C 46% Calm Calm -- 29.62 in1003.0 mb 0.00 in0.0 mm 0.00 in0.0 mm 0.00 in0.0 mm
02:41 AM 30.4°F-0.9°C 12.1°F-11.1°C 46% Calm Calm -- 29.62 in1003.0 mb 0.00 in0.0 mm 0.00 in0.0 mm 0.00 in0.0 mm
02:39 AM 30.6°F-0.8°C 12.3°F-10.9°C 46% Calm Calm -- 29.62 in1003.0 mb 0.00 in0.0 mm 0.00 in0.0 mm 0.00 in0.0 mm
02:36 AM 30.6°F-0.8°C 12.3°F-10.9°C 46% Calm Calm -- 29.62 in1003.0 mb 0.00 in0.0 mm 0.00 in0.0 mm 0.00 in0.0 mm
02:34 AM 30.9°F-0.6°C 12.6°F-10.8°C 46% Calm Calm -- 29.62 in1003.0 mb 0.00 in0.0 mm 0.00 in0.0 mm 0.00 in0.0 mm
02:31 AM 30.9°F-0.6°C 12.6°F-10.8°C 46% Calm Calm -- 29.62 in1003.0 mb 0.00 in0.0 mm 0.00 in0.0 mm 0.00 in0.0 mm
02:29 AM 30.9°F-0.6°C 12.1°F-11.1°C 45% Calm Calm 0.7 mph1.1 kmh 29.62 in1003.0 mb 0.00 in0.0 mm 0.00 in0.0 mm 0.00 in0.0 mm
02:26 AM 30.9°F-0.6°C 12.1°F-11.1°C 45% Calm Calm 0.7 mph1.1 kmh 29.62 in1003.0 mb 0.00 in0.0 mm 0.00 in0.0 mm 0.00 in0.0 mm
02:24 AM 31.1°F-0.5°C 11.8°F-11.2°C 44% 0.7 mph NE1.1 kmh NE 1.6 mph2.6 kmh 29.62 in1003.0 mb 0.00 in0.0 mm 0.00 in0.0 mm 0.00 in0.0 mm
02:21 AM 31.1°F-0.5°C 11.8°F-11.2°C 44% 0.7 mph NE1.1 kmh NE 1.6 mph2.6 kmh 29.62 in1003.0 mb 0.00 in0.0 mm 0.00 in0.0 mm 0.00 in0.0 mm
02:19 AM 31.1°F-0.5°C 11.8°F-11.2°C 44% Calm Calm -- 29.63 in1003.4 mb 0.00 in0.0 mm 0.00 in0.0 mm 0.00 in0.0 mm
02:16 AM 31.1°F-0.5°C 11.8°F-11.2°C 44% Calm Calm -- 29.63 in1003.4 mb 0.00 in0.0 mm 0.00 in0.0 mm 0.00 in0.0 mm
02:14 AM 30.9°F-0.6°C 12.1°F-11.1°C 45% 0.7 mph E1.1 kmh E 1.6 mph2.6 kmh 29.63 in1003.4 mb 0.00 in0.0 mm 0.00 in0.0 mm 0.00 in0.0 mm
02:11 AM 30.9°F-0.6°C 12.1°F-11.1°C 45% 0.7 mph E1.1 kmh E 1.6 mph2.6 kmh 29.63 in1003.4 mb 0.00 in0.0 mm 0.00 in0.0 mm 0.00 in0.0 mm
02:09 AM 30.4°F-0.9°C 11.6°F-11.3°C 45% 1.6 mph E2.6 kmh E 2.2 mph3.5 kmh 29.63 in1003.4 mb 0.00 in0.0 mm 0.00 in0.0 mm 0.00 in0.0 mm
02:06 AM 30.4°F-0.9°C 11.6°F-11.3°C 45% 1.6 mph E2.6 kmh E 2.2 mph3.5 kmh 29.63 in1003.4 mb 0.00 in0.0 mm 0.00 in0.0 mm 0.00 in0.0 mm
02:04 AM 30.2°F-1.0°C 11.4°F-11.4°C 45% Calm Calm -- 29.63 in1003.4 mb 0.00 in0.0 mm 0.00 in0.0 mm 0.00 in0.0 mm
02:01 AM 30.2°F-1.0°C 11.4°F-11.4°C 45% Calm Calm -- 29.63 in1003.4 mb 0.00 in0.0 mm 0.00 in0.0 mm 0.00 in0.0 mm
01:59 AM 30.4°F-0.9°C 11.6°F-11.3°C 45% Calm Calm -- 29.63 in1003.4 mb 0.00 in0.0 mm 0.00 in0.0 mm 0.00 in0.0 mm
01:56 AM 30.4°F-0.9°C 11.6°F-11.3°C 45% Calm Calm -- 29.63 in1003.4 mb 0.00 in0.0 mm 0.00 in0.0 mm 0.00 in0.0 mm
01:54 AM 30.6°F-0.8°C 12.3°F-10.9°C 46% Calm Calm -- 29.63 in1003.4 mb 0.00 in0.0 mm 0.00 in0.0 mm 0.00 in0.0 mm
01:51 AM 30.6°F-0.8°C 12.3°F-10.9°C 46% Calm Calm -- 29.63 in1003.4 mb 0.00 in0.0 mm 0.00 in0.0 mm 0.00 in0.0 mm
01:48 AM 30.7°F-0.7°C 12.4°F-10.9°C 46% Calm Calm -- 29.63 in1003.4 mb 0.00 in0.0 mm 0.00 in0.0 mm 0.00 in0.0 mm
01:46 AM 30.7°F-0.7°C 12.4°F-10.9°C 46% Calm Calm -- 29.63 in1003.4 mb 0.00 in0.0 mm 0.00 in0.0 mm 0.00 in0.0 mm
01:43 AM 30.7°F-0.7°C 11.9°F-11.2°C 45% Calm Calm -- 29.63 in1003.4 mb 0.00 in0.0 mm 0.00 in0.0 mm 0.00 in0.0 mm
01:41 AM 30.7°F-0.7°C 11.9°F-11.2°C 45% Calm Calm -- 29.63 in1003.4 mb 0.00 in0.0 mm 0.00 in0.0 mm 0.00 in0.0 mm
01:38 AM 30.9°F-0.6°C 11.6°F-11.3°C 44% Calm Calm -- 29.63 in1003.4 mb 0.00 in0.0 mm 0.00 in0.0 mm 0.00 in0.0 mm
01:36 AM 30.9°F-0.6°C 11.6°F-11.3°C 44% Calm Calm -- 29.63 in1003.4 mb 0.00 in0.0 mm 0.00 in0.0 mm 0.00 in0.0 mm
01:33 AM 31.3°F-0.4°C 11.9°F-11.2°C 44% Calm Calm -- 29.63 in1003.4 mb 0.00 in0.0 mm 0.00 in0.0 mm 0.00 in0.0 mm
01:31 AM 31.3°F-0.4°C 11.9°F-11.2°C 44% Calm Calm -- 29.63 in1003.4 mb 0.00 in0.0 mm 0.00 in0.0 mm 0.00 in0.0 mm
01:28 AM 31.3°F-0.4°C 11.9°F-11.2°C 44% Calm Calm -- 29.63 in1003.4 mb 0.00 in0.0 mm 0.00 in0.0 mm 0.00 in0.0 mm
01:26 AM 31.3°F-0.4°C 11.9°F-11.2°C 44% Calm Calm -- 29.63 in1003.4 mb 0.00 in0.0 mm 0.00 in0.0 mm 0.00 in0.0 mm
01:23 AM 31.5°F-0.3°C 11.0°F-11.7°C 42% Calm Calm -- 29.63 in1003.4 mb 0.00 in0.0 mm 0.00 in0.0 mm 0.00 in0.0 mm
01:21 AM 31.5°F-0.3°C 11.0°F-11.7°C 42% Calm Calm -- 29.63 in1003.4 mb 0.00 in0.0 mm 0.00 in0.0 mm 0.00 in0.0 mm
01:18 AM 32.0°F0.0°C 11.0°F-11.7°C 41% Calm Calm -- 29.64 in1003.7 mb 0.00 in0.0 mm 0.00 in0.0 mm 0.00 in0.0 mm
01:16 AM 32.0°F0.0°C 11.0°F-11.7°C 41% Calm Calm -- 29.64 in1003.7 mb 0.00 in0.0 mm 0.00 in0.0 mm 0.00 in0.0 mm
01:13 AM 31.6°F-0.2°C 11.2°F-11.6°C 42% Calm Calm -- 29.64 in1003.7 mb 0.00 in0.0 mm 0.00 in0.0 mm 0.00 in0.0 mm
01:11 AM 31.6°F-0.2°C 11.2°F-11.6°C 42% Calm Calm -- 29.64 in1003.7 mb 0.00 in0.0 mm 0.00 in0.0 mm 0.00 in0.0 mm
01:08 AM 32.0°F0.0°C 11.0°F-11.7°C 41% Calm Calm -- 29.64 in1003.7 mb 0.00 in0.0 mm 0.00 in0.0 mm 0.00 in0.0 mm
01:06 AM 32.0°F0.0°C 11.0°F-11.7°C 41% Calm Calm -- 29.64 in1003.7 mb 0.00 in0.0 mm 0.00 in0.0 mm 0.00 in0.0 mm
01:03 AM 32.0°F0.0°C 11.0°F-11.7°C 41% Calm Calm -- 29.64 in1003.7 mb 0.00 in0.0 mm 0.00 in0.0 mm 0.00 in0.0 mm
01:01 AM 32.0°F0.0°C 11.0°F-11.7°C 41% Calm Calm -- 29.64 in1003.7 mb 0.00 in0.0 mm 0.00 in0.0 mm 0.00 in0.0 mm
12:58 AM 32.2°F0.1°C 11.2°F-11.6°C 41% Calm Calm -- 29.64 in1003.7 mb 0.00 in0.0 mm 0.00 in0.0 mm 0.00 in0.0 mm
12:56 AM 32.2°F0.1°C 11.2°F-11.6°C 41% Calm Calm -- 29.64 in1003.7 mb 0.00 in0.0 mm 0.00 in0.0 mm 0.00 in0.0 mm
12:53 AM 32.2°F0.1°C 11.2°F-11.6°C 41% Calm Calm -- 29.63 in1003.4 mb 0.00 in0.0 mm 0.00 in0.0 mm 0.00 in0.0 mm
12:51 AM 32.2°F0.1°C 11.2°F-11.6°C 41% Calm Calm -- 29.63 in1003.4 mb 0.00 in0.0 mm 0.00 in0.0 mm 0.00 in0.0 mm
12:48 AM 32.5°F0.3°C 11.5°F-11.4°C 41% Calm Calm -- 29.64 in1003.7 mb 0.00 in0.0 mm 0.00 in0.0 mm 0.00 in0.0 mm
12:46 AM 32.5°F0.3°C 11.5°F-11.4°C 41% Calm Calm -- 29.64 in1003.7 mb 0.00 in0.0 mm 0.00 in0.0 mm 0.00 in0.0 mm
12:43 AM 32.9°F0.5°C 11.8°F-11.2°C 41% Calm Calm -- 29.64 in1003.7 mb 0.00 in0.0 mm 0.00 in0.0 mm 0.00 in0.0 mm
12:41 AM 32.9°F0.5°C 11.8°F-11.2°C 41% Calm Calm -- 29.64 in1003.7 mb 0.00 in0.0 mm 0.00 in0.0 mm 0.00 in0.0 mm
12:38 AM 32.9°F0.5°C 11.8°F-11.2°C 41% 0.7 mph 1.1 kmh 2.2 mph3.5 kmh 29.65 in1004.1 mb 0.00 in0.0 mm 0.00 in0.0 mm 0.00 in0.0 mm
12:36 AM 32.9°F0.5°C 11.8°F-11.2°C 41% 0.7 mph 1.1 kmh 2.2 mph3.5 kmh 29.65 in1004.1 mb 0.00 in0.0 mm 0.00 in0.0 mm 0.00 in0.0 mm
12:33 AM 32.9°F0.5°C 11.3°F-11.5°C 40% 1.6 mph 2.6 kmh 1.6 mph2.6 kmh 29.64 in1003.7 mb 0.00 in0.0 mm 0.00 in0.0 mm 0.00 in0.0 mm
12:30 AM 32.9°F0.5°C 11.3°F-11.5°C 40% 1.6 mph 2.6 kmh 1.6 mph2.6 kmh 29.64 in1003.7 mb 0.00 in0.0 mm 0.00 in0.0 mm 0.00 in0.0 mm
12:28 AM 32.9°F0.5°C 11.3°F-11.5°C 40% 0.7 mph 1.1 kmh 1.6 mph2.6 kmh 29.64 in1003.7 mb 0.00 in0.0 mm 0.00 in0.0 mm 0.00 in0.0 mm
12:25 AM 32.9°F0.5°C 11.3°F-11.5°C 40% 0.7 mph 1.1 kmh 1.6 mph2.6 kmh 29.64 in1003.7 mb 0.00 in0.0 mm 0.00 in0.0 mm 0.00 in0.0 mm
12:23 AM 32.9°F0.5°C 11.8°F-11.2°C 41% Calm Calm -- 29.64 in1003.7 mb 0.00 in0.0 mm 0.00 in0.0 mm 0.00 in0.0 mm
12:20 AM 32.9°F0.5°C 11.8°F-11.2°C 41% Calm Calm -- 29.64 in1003.7 mb 0.00 in0.0 mm 0.00 in0.0 mm 0.00 in0.0 mm
12:18 AM 33.1°F0.6°C 11.4°F-11.4°C 40% Calm Calm -- 29.64 in1003.7 mb 0.00 in0.0 mm 0.00 in0.0 mm 0.00 in0.0 mm
12:15 AM 33.1°F0.6°C 11.4°F-11.4°C 40% Calm Calm -- 29.64 in1003.7 mb 0.00 in0.0 mm 0.00 in0.0 mm 0.00 in0.0 mm
12:13 AM 33.3°F0.7°C 11.6°F-11.3°C 40% Calm Calm -- 29.64 in1003.7 mb 0.00 in0.0 mm 0.00 in0.0 mm 0.00 in0.0 mm
12:10 AM 33.3°F0.7°C 11.6°F-11.3°C 40% Calm Calm -- 29.64 in1003.7 mb 0.00 in0.0 mm 0.00 in0.0 mm 0.00 in0.0 mm
12:08 AM 33.4°F0.8°C 11.7°F-11.3°C 40% Calm Calm 0.7 mph1.1 kmh 29.64 in1003.7 mb 0.00 in0.0 mm 0.00 in0.0 mm 0.00 in0.0 mm
12:05 AM 33.4°F0.8°C 11.7°F-11.3°C 40% Calm Calm 0.7 mph1.1 kmh 29.64 in1003.7 mb 0.00 in0.0 mm 0.00 in0.0 mm 0.00 in0.0 mm
12:03 AM 33.4°F0.8°C 10.6°F-11.9°C 38% Calm Calm -- 29.64 in1003.7 mb 0.00 in0.0 mm 0.00 in0.0 mm 0.00 in0.0 mm
12:00 AM 33.4°F0.8°C 10.6°F-11.9°C 38% Calm Calm -- 29.64 in1003.7 mb 0.00 in0.0 mm 0.00 in0.0 mm 0.00 in0.0 mm